Time;durP1;ratioP1;P1;durP2;ratioP2;P2;SDS_P1;SDS_P2;PMS_P1;PMS_P2;Temp;Humidity;BMP_temperature;BMP_pressure;BME280_temperature;BME280_humidity;BME280_pressure;Samples;Min_cycle;Max_cycle;Signal;HPM_P1;HPM_P2
2024/03/11 00:00:05;;;;;;;3.65;1.90;;;;;;;8.42;100.00;96362.91;1224729;75;2915960;-67
2024/03/11 00:02:38;;;;;;;2.45;1.60;;;;;;;8.42;100.00;96364.84;1224478;75;2926978;-67
2024/03/11 00:05:15;;;;;;;3.30;1.95;;;;;;;8.36;100.00;96350.44;1224541;75;2913066;-65
2024/03/11 00:07:49;;;;;;;4.35;1.80;;;;;;;8.32;100.00;96342.50;1225183;75;2921071;-66
2024/03/11 00:10:23;;;;;;;2.80;1.65;;;;;;;8.40;100.00;96361.91;1225115;75;2931312;-65
2024/03/11 00:12:56;;;;;;;3.90;1.80;;;;;;;8.29;100.00;96357.13;1222584;75;2932403;-65
2024/03/11 00:15:29;;;;;;;3.85;2.05;;;;;;;8.19;100.00;96361.31;1225194;75;2916322;-66
2024/03/11 00:18:02;;;;;;;4.75;2.90;;;;;;;8.15;100.00;96380.63;1225325;75;2915456;-67
2024/03/11 00:20:38;;;;;;;5.65;2.85;;;;;;;8.13;100.00;96395.97;1224817;75;2919351;-64
2024/03/11 00:23:10;;;;;;;4.10;3.05;;;;;;;8.00;100.00;96394.44;1225301;75;2921165;-64
2024/03/11 00:25:43;;;;;;;3.65;2.40;;;;;;;8.19;100.00;96399.47;1224521;75;2919064;-65
2024/03/11 00:28:17;;;;;;;3.60;2.45;;;;;;;8.07;100.00;96404.13;1225314;75;2918317;-66
2024/03/11 00:30:51;;;;;;;2.95;2.10;;;;;;;8.15;100.00;96402.41;1224797;75;2966954;-64
2024/03/11 00:33:24;;;;;;;5.50;3.05;;;;;;;7.81;100.00;96407.72;1225005;75;2918769;-66
2024/03/11 00:36:00;;;;;;;5.80;3.80;;;;;;;7.77;100.00;96399.06;1225894;75;2924135;-64
2024/03/11 00:38:32;;;;;;;5.65;4.20;;;;;;;7.70;100.00;96394.06;1224663;75;2920746;-64
2024/03/11 00:41:06;;;;;;;7.55;3.85;;;;;;;8.05;100.00;96396.44;1225038;75;2920834;-66
2024/03/11 00:43:42;;;;;;;4.20;2.45;;;;;;;8.18;100.00;96385.09;1225699;75;2919617;-68
2024/03/11 00:46:15;;;;;;;3.50;2.60;;;;;;;8.26;100.00;96391.56;1224162;75;2919773;-65
2024/03/11 00:48:48;;;;;;;3.65;2.50;;;;;;;8.20;100.00;96384.59;1224696;75;2912901;-64
2024/03/11 00:51:24;;;;;;;3.75;1.90;;;;;;;8.24;100.00;96374.22;1225783;75;2913376;-67
2024/03/11 00:53:57;;;;;;;2.85;1.90;;;;;;;8.06;100.00;96369.94;1224665;75;2921743;-66
2024/03/11 00:56:30;;;;;;;1.80;1.40;;;;;;;8.19;100.00;96370.22;1225286;75;2907179;-63
2024/03/11 00:59:04;;;;;;;2.55;1.60;;;;;;;8.07;100.00;96374.16;1223553;75;2955163;-66
2024/03/11 01:01:37;;;;;;;3.50;2.25;;;;;;;7.99;100.00;96371.16;1225081;75;2920010;-65
2024/03/11 01:04:10;;;;;;;2.40;1.80;;;;;;;8.13;100.00;96369.47;1225305;75;2910927;-66
2024/03/11 01:06:46;;;;;;;2.85;1.90;;;;;;;8.16;100.00;96362.31;1224709;75;2916628;-65
2024/03/11 01:09:20;;;;;;;2.30;1.60;;;;;;;7.98;100.00;96364.19;1225441;75;2920679;-68
2024/03/11 01:11:53;;;;;;;2.60;1.85;;;;;;;7.92;100.00;96366.16;1224292;75;2994659;-65
2024/03/11 01:14:26;;;;;;;2.55;1.75;;;;;;;7.93;100.00;96373.09;1224487;83;2922234;-65
2024/03/11 01:16:59;;;;;;;3.35;1.75;;;;;;;7.98;100.00;96366.94;1225457;75;2936526;-65
2024/03/11 01:19:32;;;;;;;2.70;1.60;;;;;;;8.07;100.00;96372.16;1224705;75;2935883;-64
2024/03/11 01:22:07;;;;;;;1.80;1.20;;;;;;;8.02;100.00;96367.44;1224949;75;2925658;-65
2024/03/11 01:24:40;;;;;;;2.80;1.45;;;;;;;7.86;100.00;96368.88;1224553;75;2974337;-66
2024/03/11 01:27:14;;;;;;;3.40;2.05;;;;;;;7.85;100.00;96361.94;1224814;75;2916757;-67
2024/03/11 01:29:47;;;;;;;1.75;1.55;;;;;;;8.02;100.00;96364.72;1224367;75;2931018;-65
2024/03/11 01:32:20;;;;;;;2.40;1.55;;;;;;;8.01;100.00;96373.38;1225407;75;2909345;-64
2024/03/11 01:34:53;;;;;;;3.25;1.60;;;;;;;8.00;100.00;96377.34;1223543;75;2914683;-64
2024/03/11 01:37:28;;;;;;;2.25;1.55;;;;;;;7.98;100.00;96372.38;1222509;75;2919896;-64
2024/03/11 01:40:01;;;;;;;3.05;1.75;;;;;;;7.99;100.00;96356.78;1224475;75;2917019;-66
2024/03/11 01:42:34;;;;;;;2.95;1.80;;;;;;;7.93;100.00;96364.19;1225001;75;2919363;-65
2024/03/11 01:45:08;;;;;;;3.20;1.80;;;;;;;7.90;100.00;96368.63;1224136;75;2930944;-64
2024/03/11 01:47:42;;;;;;;3.20;1.70;;;;;;;7.89;100.00;96361.72;1225216;75;2911953;-63
2024/03/11 01:50:17;;;;;;;2.05;1.60;;;;;;;7.88;100.00;96354.75;1223920;75;2914657;-63
2024/03/11 01:53:03;;;;;;;2.30;1.60;;;;;;;7.84;100.00;96365.13;1224995;75;2921142;-65
2024/03/11 01:55:38;;;;;;;2.00;1.40;;;;;;;7.84;100.00;96376.78;1223772;67;2918758;-64
2024/03/11 01:58:11;;;;;;;1.75;1.35;;;;;;;7.81;100.00;96377.75;1225576;75;2923681;-66
2024/03/11 02:00:46;;;;;;;1.75;1.30;;;;;;;7.84;100.00;96376.03;1225321;75;2938249;-65
2024/03/11 02:03:20;;;;;;;2.55;1.50;;;;;;;7.81;100.00;96375.03;1225251;75;2919892;-67
2024/03/11 02:05:53;;;;;;;2.15;1.40;;;;;;;7.76;100.00;96377.72;1224867;75;2922267;-64
2024/03/11 02:08:28;;;;;;;2.35;1.40;;;;;;;7.68;100.00;96378.19;1224917;75;2917241;-64
2024/03/11 02:11:01;;;;;;;1.40;1.30;;;;;;;7.69;100.00;96374.22;1224718;75;2906923;-64
2024/03/11 02:13:34;;;;;;;2.25;1.40;;;;;;;7.73;100.00;96365.84;1224739;75;2936333;-67
2024/03/11 02:16:07;;;;;;;2.90;1.70;;;;;;;7.55;100.00;96372.44;1224916;75;2920232;-65
2024/03/11 02:18:41;;;;;;;4.20;2.40;;;;;;;7.14;100.00;96371.91;1224100;75;2925266;-66
2024/03/11 02:21:13;;;;;;;7.05;3.85;;;;;;;7.09;100.00;96369.88;1225276;75;2917249;-66
2024/03/11 02:23:49;;;;;;;5.70;3.10;;;;;;;7.33;100.00;96373.03;1224125;75;2925323;-64
2024/03/11 02:26:22;;;;;;;3.65;2.55;;;;;;;7.46;100.00;96365.19;1224698;75;2917797;-68
2024/03/11 02:28:54;;;;;;;3.05;2.25;;;;;;;7.44;100.00;96364.19;1224693;75;2922022;-65
2024/03/11 02:31:28;;;;;;;2.75;1.95;;;;;;;7.44;100.00;96364.94;1224839;75;2915610;-66
2024/03/11 02:34:00;;;;;;;3.45;2.10;;;;;;;7.49;100.00;96373.63;1225947;75;2914607;-65
2024/03/11 02:36:34;;;;;;;3.35;2.00;;;;;;;7.41;100.00;96373.34;1224019;75;2920709;-68
2024/03/11 02:39:10;;;;;;;3.55;1.75;;;;;;;7.38;100.00;96369.59;1224804;75;2916019;-65
2024/03/11 02:41:43;;;;;;;2.65;1.75;;;;;;;7.26;100.00;96362.59;1225277;75;2913355;-66
2024/03/11 02:44:17;;;;;;;2.65;1.90;;;;;;;7.19;100.00;96374.69;1224518;75;2918083;-66
2024/03/11 02:46:49;;;;;;;2.80;1.95;;;;;;;7.24;100.00;96386.84;1225002;75;2910043;-68
2024/03/11 02:49:22;;;;;;;1.70;1.40;;;;;;;7.24;100.00;96381.41;1224587;75;2921848;-64
2024/03/11 02:51:55;;;;;;;3.35;2.00;;;;;;;6.97;100.00;96380.69;1223987;75;2925463;-67
2024/03/11 02:54:32;;;;;;;2.50;1.90;;;;;;;7.14;100.00;96369.91;1224966;75;2917904;-65
2024/03/11 02:57:05;;;;;;;2.60;1.80;;;;;;;7.20;100.00;96369.97;1224384;75;2921434;-63
2024/03/11 02:59:40;;;;;;;1.70;1.40;;;;;;;7.06;100.00;96355.28;1225199;75;2914438;-67
2024/03/11 03:02:13;;;;;;;3.90;2.45;;;;;;;6.92;100.00;96356.91;1224116;75;2917080;-65
2024/03/11 03:04:45;;;;;;;3.60;2.50;;;;;;;6.88;100.00;96348.22;1223378;75;2923409;-65
2024/03/11 03:07:20;;;;;;;3.15;1.85;;;;;;;7.00;100.00;96360.69;1223336;75;2925725;-65
2024/03/11 03:09:56;;;;;;;3.75;1.80;;;;;;;7.07;100.00;96364.94;1223200;75;2926777;-65
2024/03/11 03:12:30;;;;;;;2.95;1.55;;;;;;;6.96;100.00;96367.56;1223986;75;2919424;-68
2024/03/11 03:15:03;;;;;;;2.25;1.60;;;;;;;6.85;100.00;96365.50;1224248;75;2920069;-65
2024/03/11 03:17:38;;;;;;;3.00;1.60;;;;;;;6.69;100.00;96369.56;1224342;75;2921049;-66
2024/03/11 03:20:12;;;;;;;2.20;1.40;;;;;;;6.67;100.00;96363.88;1224907;75;2923447;-65
2024/03/11 03:22:45;;;;;;;2.50;1.45;;;;;;;6.75;100.00;96369.63;1224358;75;2924853;-66
2024/03/11 03:25:21;;;;;;;2.90;1.70;;;;;;;6.51;100.00;96388.91;1224618;75;2921754;-65
2024/03/11 03:27:56;;;;;;;2.20;1.80;;;;;;;6.61;100.00;96390.25;1225615;75;2918625;-66
2024/03/11 03:30:28;;;;;;;2.30;1.70;;;;;;;6.61;100.00;96393.75;1224574;75;2924501;-65
2024/03/11 03:33:01;;;;;;;1.95;1.50;;;;;;;6.56;100.00;96383.53;1223286;75;2920908;-64
2024/03/11 03:35:35;;;;;;;2.00;1.20;;;;;;;6.42;100.00;96381.66;1223995;75;2916458;-66
2024/03/11 03:38:08;;;;;;;3.00;1.85;;;;;;;6.29;100.00;96382.03;1224358;75;2940094;-65
2024/03/11 03:40:44;;;;;;;2.20;1.75;;;;;;;6.36;100.00;96380.88;1224000;75;2922893;-65
2024/03/11 03:43:16;;;;;;;3.05;1.70;;;;;;;6.21;100.00;96378.25;1223187;75;2924037;-65
2024/03/11 03:45:49;;;;;;;3.00;1.90;;;;;;;6.19;100.00;96383.41;1223493;75;2913877;-64
2024/03/11 03:48:22;;;;;;;1.50;1.40;;;;;;;6.21;100.00;96382.94;1224008;75;2925904;-65
2024/03/11 03:50:55;;;;;;;2.80;1.50;;;;;;;6.21;100.00;96389.13;1223702;75;2920318;-65
2024/03/11 03:53:28;;;;;;;3.50;1.95;;;;;;;6.02;100.00;96391.34;1224396;75;2918574;-64
2024/03/11 03:56:04;;;;;;;6.25;2.50;;;;;;;5.82;100.00;96383.94;1211132;75;3852248;-64
2024/03/11 03:58:37;;;;;;;6.85;3.65;;;;;;;5.77;100.00;96392.72;1223828;75;2921385;-65
2024/03/11 04:01:10;;;;;;;7.10;3.85;;;;;;;5.45;100.00;96394.53;1222425;75;2970407;-64
2024/03/11 04:03:45;;;;;;;8.15;3.80;;;;;;;5.30;100.00;96398.03;1224404;75;2921818;-64
2024/03/11 04:06:18;;;;;;;5.00;3.45;;;;;;;5.48;100.00;96399.78;1224762;75;2917846;-68
2024/03/11 04:08:51;;;;;;;4.05;3.15;;;;;;;5.51;100.00;96401.53;1224455;75;2922817;-65
2024/03/11 04:11:26;;;;;;;5.40;2.95;;;;;;;5.60;100.00;96405.34;1223927;75;2925562;-66
2024/03/11 04:14:00;;;;;;;5.55;3.35;;;;;;;5.58;100.00;96391.50;1224264;75;2924249;-66
2024/03/11 04:16:33;;;;;;;4.95;2.75;;;;;;;5.65;100.00;96391.09;1222974;75;2924683;-64
2024/03/11 04:19:08;;;;;;;4.00;2.85;;;;;;;5.79;100.00;96395.72;1224535;75;2923821;-66
2024/03/11 04:21:41;;;;;;;3.55;2.35;;;;;;;6.01;100.00;96386.41;1223942;75;2915052;-65
2024/03/11 04:24:14;;;;;;;3.00;1.85;;;;;;;6.07;100.00;96385.25;1223557;75;2926364;-64
2024/03/11 04:26:50;;;;;;;3.50;2.05;;;;;;;5.79;100.00;96378.69;1223368;75;2921928;-66
2024/03/11 04:29:23;;;;;;;3.35;2.20;;;;;;;5.68;100.00;96385.47;1223753;75;2927698;-66
2024/03/11 04:31:57;;;;;;;2.60;1.70;;;;;;;5.94;100.00;96369.31;1224010;75;2927483;-66
2024/03/11 04:34:30;;;;;;;2.35;1.90;;;;;;;6.05;100.00;96376.06;1224822;75;2915703;-64
2024/03/11 04:37:03;;;;;;;2.60;1.60;;;;;;;6.08;100.00;96372.41;1223089;75;2927261;-65
2024/03/11 04:39:36;;;;;;;2.85;1.70;;;;;;;6.05;100.00;96381.50;1223556;75;2923758;-64
2024/03/11 04:42:11;;;;;;;1.90;1.60;;;;;;;6.06;100.00;96380.28;1223516;75;2923078;-65
2024/03/11 04:44:44;;;;;;;2.40;1.60;;;;;;;6.03;100.00;96375.81;1223797;75;2934657;-67
2024/03/11 04:47:18;;;;;;;2.25;1.60;;;;;;;6.01;100.00;96375.53;1223279;67;2927152;-65
2024/03/11 04:49:51;;;;;;;3.45;1.80;;;;;;;5.90;100.00;96376.88;1223727;75;2927381;-65
2024/03/11 04:52:26;;;;;;;3.00;1.80;;;;;;;5.89;100.00;96367.22;1222935;75;2937851;-66
2024/03/11 04:54:59;;;;;;;4.10;2.10;;;;;;;5.89;100.00;96367.22;1224397;75;2927179;-66
2024/03/11 04:57:34;;;;;;;3.10;2.25;;;;;;;5.79;100.00;96362.41;1224439;75;2918945;-65
2024/03/11 05:00:10;;;;;;;5.40;3.15;;;;;;;5.74;100.00;96367.28;1224122;75;2929058;-66
2024/03/11 05:02:43;;;;;;;3.65;2.70;;;;;;;5.89;100.00;96359.09;1222356;75;2951230;-66
2024/03/11 05:05:16;;;;;;;3.80;2.55;;;;;;;5.90;100.00;96355.13;1224271;75;2929280;-64
2024/03/11 05:07:49;;;;;;;3.60;2.45;;;;;;;5.88;100.00;96356.84;1223822;75;2923722;-65
2024/03/11 05:10:22;;;;;;;2.65;1.80;;;;;;;5.82;100.00;96356.00;1224237;75;2925636;-64
2024/03/11 05:12:58;;;;;;;2.25;1.60;;;;;;;5.86;100.00;96365.44;1223155;83;2924005;-64
2024/03/11 05:15:32;;;;;;;2.55;1.65;;;;;;;5.73;100.00;96368.50;1223959;75;2920729;-65
2024/03/11 05:18:06;;;;;;;1.75;1.50;;;;;;;5.80;100.00;96370.09;1223619;75;2924996;-67
2024/03/11 05:20:38;;;;;;;2.00;1.60;;;;;;;5.86;100.00;96368.16;1223629;75;2929448;-65
2024/03/11 05:23:12;;;;;;;2.65;1.85;;;;;;;5.87;100.00;96383.25;1223534;75;2923706;-64
2024/03/11 05:25:48;;;;;;;2.35;1.60;;;;;;;5.87;100.00;96394.13;1223312;75;2931557;-65
2024/03/11 05:28:23;;;;;;;2.85;1.80;;;;;;;5.88;100.00;96390.16;1224103;75;2930842;-63
2024/03/11 05:30:56;;;;;;;2.20;1.85;;;;;;;5.89;100.00;96397.13;1222940;75;2925851;-64
2024/03/11 05:33:29;;;;;;;2.05;1.55;;;;;;;5.95;100.00;96402.63;1223749;75;2922688;-66
2024/03/11 05:36:05;;;;;;;2.05;1.60;;;;;;;5.94;100.00;96412.75;1222657;75;2929470;-65
2024/03/11 05:38:38;;;;;;;2.10;1.70;;;;;;;5.78;100.00;96421.41;1223881;75;2921091;-64
2024/03/11 05:41:11;;;;;;;1.80;1.50;;;;;;;5.86;100.00;96424.47;1222554;75;2924191;-65
2024/03/11 05:43:47;;;;;;;2.35;1.85;;;;;;;5.83;100.00;96420.72;1222919;75;2924901;-64
2024/03/11 05:46:20;;;;;;;2.10;1.85;;;;;;;5.91;100.00;96415.63;1223191;75;2925378;-64
2024/03/11 05:48:53;;;;;;;4.45;2.85;;;;;;;5.92;100.00;96412.44;1223111;75;2927994;-65
2024/03/11 05:51:28;;;;;;;4.85;3.55;;;;;;;5.98;100.00;96416.00;1222468;75;2936802;-66
2024/03/11 05:54:01;;;;;;;5.60;3.55;;;;;;;5.96;100.00;96415.75;1223241;67;2925275;-65
2024/03/11 05:56:36;;;;;;;6.55;4.55;;;;;;;6.00;100.00;96422.94;1223602;75;2927511;-64
2024/03/11 05:59:14;;;;;;;5.30;3.90;;;;;;;6.00;100.00;96431.84;1224514;75;2919009;-64
2024/03/11 06:01:47;;;;;;;7.60;5.10;;;;;;;6.00;100.00;96448.13;1224686;75;2912976;-65
2024/03/11 06:04:20;;;;;;;6.90;5.35;;;;;;;6.04;100.00;96445.19;1224912;75;2923824;-62
2024/03/11 06:06:54;;;;;;;5.95;4.60;;;;;;;6.05;100.00;96441.28;1223166;75;2928825;-66
2024/03/11 06:09:27;;;;;;;5.75;4.50;;;;;;;6.08;100.00;96446.50;1222890;75;2941187;-64
2024/03/11 06:12:00;;;;;;;3.85;3.05;;;;;;;6.10;100.00;96462.34;1222663;75;2936465;-64
2024/03/11 06:14:35;;;;;;;4.45;3.10;;;;;;;6.20;100.00;96463.69;1222115;75;2927337;-63
2024/03/11 06:17:10;;;;;;;4.45;3.05;;;;;;;6.23;100.00;96467.41;1223408;75;2918804;-65
2024/03/11 06:19:43;;;;;;;3.90;2.70;;;;;;;6.25;100.00;96484.00;1221891;75;2932109;-64
2024/03/11 06:22:16;;;;;;;2.95;2.20;;;;;;;6.32;100.00;96478.16;1222247;75;2923550;-65
2024/03/11 06:24:49;;;;;;;2.80;2.00;;;;;;;6.33;100.00;96491.28;1223115;75;2922316;-64
2024/03/11 06:27:22;;;;;;;6.40;2.70;;;;;;;6.27;100.00;96500.59;1222786;75;2932184;-65
2024/03/11 06:29:58;;;;;;;4.85;2.65;;;;;;;6.18;100.00;96510.38;1222957;75;2925172;-65
2024/03/11 06:32:32;;;;;;;4.25;2.70;;;;;;;6.35;100.00;96516.03;1222901;75;2931308;-63
2024/03/11 06:35:05;;;;;;;3.85;2.50;;;;;;;6.50;100.00;96518.69;1221393;75;2934890;-65
2024/03/11 06:37:39;;;;;;;3.45;2.45;;;;;;;6.58;100.00;96524.44;1224240;75;2922576;-63
2024/03/11 06:40:17;;;;;;;4.45;2.75;;;;;;;6.64;100.00;96519.84;1223616;75;2921125;-64
2024/03/11 06:42:51;;;;;;;;;;;;;;;6.64;100.00;96524.50;1224597;75;2933245;-65
2024/03/11 06:45:27;;;;;;;4.05;2.20;;;;;;;6.78;100.00;96523.69;1223074;75;2928689;-66
2024/03/11 06:48:00;;;;;;;2.80;2.20;;;;;;;6.86;100.00;96524.03;1223495;75;2921181;-65
2024/03/11 06:50:33;;;;;;;3.10;2.40;;;;;;;6.91;100.00;96528.78;1223149;75;2927568;-66
2024/03/11 06:53:08;;;;;;;3.55;2.85;;;;;;;6.94;100.00;96542.16;1222505;75;2934368;-67
2024/03/11 06:55:41;;;;;;;3.50;2.60;;;;;;;7.01;100.00;96541.75;1222788;75;2942745;-64
2024/03/11 06:58:14;;;;;;;3.90;2.80;;;;;;;7.06;100.00;96539.56;1222761;75;2926915;-64
2024/03/11 07:00:49;;;;;;;8.05;5.25;;;;;;;6.93;100.00;96543.41;1223149;75;2936245;-66
2024/03/11 07:03:23;;;;;;;10.15;6.40;;;;;;;6.99;100.00;96540.72;1221688;75;2929725;-66
2024/03/11 07:05:58;;;;;;;8.75;6.55;;;;;;;7.07;100.00;96535.63;1222264;75;2922556;-67
2024/03/11 07:08:32;;;;;;;12.35;8.00;;;;;;;7.09;100.00;96538.59;1223280;75;2920059;-64
2024/03/11 07:11:05;;;;;;;11.55;6.15;;;;;;;7.11;100.00;96536.91;1222738;83;2919346;-65
2024/03/11 07:13:38;;;;;;;12.05;7.05;;;;;;;7.08;100.00;96526.97;1223053;75;2929369;-65
2024/03/11 07:16:15;;;;;;;13.00;6.20;;;;;;;7.11;100.00;96536.16;1224093;75;2922593;-64
2024/03/11 07:18:50;;;;;;;9.05;6.60;;;;;;;7.19;100.00;96539.94;1223234;75;2921912;-64
2024/03/11 07:21:27;;;;;;;7.85;5.45;;;;;;;7.17;100.00;96537.72;1222680;75;2925685;-64
2024/03/11 07:24:01;;;;;;;9.25;5.50;;;;;;;7.30;100.00;96548.22;1223065;75;2922023;-66
2024/03/11 07:26:34;;;;;;;9.75;6.00;;;;;;;7.50;100.00;96555.56;1213750;75;2931236;-64
2024/03/11 07:29:07;;;;;;;9.65;5.70;;;;;;;7.43;100.00;96564.16;1220546;75;2927595;-63
2024/03/11 07:31:43;;;;;;;7.30;4.70;;;;;;;7.60;100.00;96558.88;1222225;75;2925953;-66
2024/03/11 07:34:18;;;;;;;8.00;5.05;;;;;;;7.63;100.00;96560.66;1222406;75;2922371;-65
2024/03/11 07:36:55;;;;;;;11.95;5.75;;;;;;;7.64;100.00;96556.69;1222713;75;2919803;-64
2024/03/11 07:39:28;;;;;;;8.65;5.65;;;;;;;7.49;100.00;96553.34;1223841;75;2933330;-64
2024/03/11 07:42:01;;;;;;;11.00;5.65;;;;;;;7.59;100.00;96547.25;1224055;75;2926800;-61
2024/03/11 07:44:34;;;;;;;11.50;5.50;;;;;;;7.62;100.00;96545.53;1223084;75;2933334;-65
2024/03/11 07:47:11;;;;;;;10.60;7.25;;;;;;;7.79;100.00;96543.69;1224180;75;2929078;-66
2024/03/11 07:49:44;;;;;;;14.25;7.80;;;;;;;7.90;100.00;96540.31;1223200;75;2928046;-65
2024/03/11 07:52:16;;;;;;;12.05;6.15;;;;;;;7.89;100.00;96538.81;1222274;75;2921735;-63
2024/03/11 07:54:49;;;;;;;11.50;5.45;;;;;;;8.22;100.00;96549.16;1193588;75;5216292;-66
2024/03/11 07:57:23;;;;;;;9.60;6.40;;;;;;;8.10;100.00;96544.88;1222470;75;2931403;-62
2024/03/11 07:59:56;;;;;;;12.85;6.50;;;;;;;8.34;100.00;96555.44;1223466;75;2927619;-63
2024/03/11 08:02:33;;;;;;;11.05;6.70;;;;;;;8.40;100.00;96555.50;1223677;75;2923625;-64
2024/03/11 08:05:13;;;;;;;8.45;5.90;;;;;;;8.47;100.00;96549.59;1221794;75;2942765;-63
2024/03/11 08:07:47;;;;;;;7.85;5.70;;;;;;;8.55;100.00;96560.78;1222707;75;2933537;-66
2024/03/11 08:10:20;;;;;;;8.40;6.40;;;;;;;8.80;100.00;96561.88;1223390;75;2929732;-66
2024/03/11 08:12:53;;;;;;;9.45;4.80;;;;;;;8.92;100.00;96563.41;1222592;75;2924828;-66
2024/03/11 08:15:26;;;;;;;6.55;4.80;;;;;;;9.16;100.00;96555.56;1223192;75;2924873;-62
2024/03/11 08:18:03;;;;;;;5.40;3.95;;;;;;;9.28;100.00;96547.38;1224114;75;2919629;-66
2024/03/11 08:20:36;;;;;;;5.40;4.10;;;;;;;9.39;100.00;96553.63;1223175;83;2930205;-64
2024/03/11 08:23:09;;;;;;;8.70;4.85;;;;;;;9.06;100.00;96553.53;1223081;75;2924574;-64
2024/03/11 08:25:44;;;;;;;8.40;4.75;;;;;;;9.24;100.00;96555.81;1223177;75;2927290;-64
2024/03/11 08:28:17;;;;;;;5.15;3.35;;;;;;;9.52;100.00;96549.66;1223824;75;2929711;-64
2024/03/11 08:30:50;;;;;;;5.05;3.70;;;;;;;9.60;100.00;96542.47;1222295;75;2965884;-64
2024/03/11 08:33:26;;;;;;;4.20;3.00;;;;;;;9.69;100.00;96546.94;1222576;75;2926763;-66
2024/03/11 08:35:59;;;;;;;7.75;4.90;;;;;;;9.50;100.00;96541.97;1217926;75;2953641;-64
2024/03/11 08:38:32;;;;;;;8.50;4.65;;;;;;;9.63;100.00;96546.19;1223699;75;2925304;-65
2024/03/11 08:41:06;;;;;;;7.90;4.25;;;;;;;10.19;100.00;96529.72;1223147;75;2932694;-64
2024/03/11 08:43:39;;;;;;;5.90;4.20;;;;;;;9.98;100.00;96527.28;1223511;75;2916676;-65
2024/03/11 08:46:12;;;;;;;6.20;4.10;;;;;;;9.81;100.00;96523.81;1221541;75;2925474;-65
2024/03/11 08:48:49;;;;;;;6.45;3.80;;;;;;;10.19;100.00;96529.72;1222755;75;2932896;-67
2024/03/11 08:51:21;;;;;;;5.05;3.00;;;;;;;10.79;100.00;96521.13;1224127;75;2919016;-66
2024/03/11 08:53:54;;;;;;;4.10;2.70;;;;;;;10.64;100.00;96522.16;1223044;75;2931359;-65
2024/03/11 08:56:31;;;;;;;4.40;3.05;;;;;;;10.54;100.00;96517.50;1222758;75;2928232;-64
2024/03/11 08:59:10;;;;;;;8.10;3.40;;;;;;;10.19;100.00;96508.59;1224814;75;2907291;-65
2024/03/11 09:01:44;;;;;;;5.80;3.40;;;;;;;10.40;100.00;96511.81;1223989;75;2925308;-67
2024/03/11 09:04:20;;;;;;;5.40;3.15;;;;;;;10.74;100.00;96506.19;1224449;75;2923263;-64
2024/03/11 09:06:56;;;;;;;7.55;4.35;;;;;;;10.55;100.00;96499.81;1222862;75;2931946;-68
2024/03/11 09:09:29;;;;;;;5.15;3.55;;;;;;;10.91;100.00;96511.59;1222483;75;2923218;-64
2024/03/11 09:12:05;;;;;;;3.95;2.85;;;;;;;10.99;100.00;96509.84;1222256;75;2939973;-65
2024/03/11 09:14:37;;;;;;;5.15;3.70;;;;;;;11.14;100.00;96508.75;1223328;75;2921368;-67
2024/03/11 09:17:12;;;;;;;4.25;2.80;;;;;;;11.37;100.00;96507.34;1221934;75;2925008;-64
2024/03/11 09:19:49;;;;;;;4.30;2.80;;;;;;;11.43;100.00;96499.81;1223686;75;2927676;-64
2024/03/11 09:22:22;;;;;;;4.95;3.20;;;;;;;11.28;100.00;96511.16;1223735;75;2925114;-65
2024/03/11 09:24:55;;;;;;;6.45;3.30;;;;;;;11.08;100.00;96511.50;1222411;75;2921809;-63
2024/03/11 09:27:27;;;;;;;3.80;2.40;;;;;;;11.61;100.00;96508.66;1223653;75;2920823;-65
2024/03/11 09:30:01;;;;;;;4.70;2.45;;;;;;;11.65;100.00;96512.63;1223153;75;2921841;-65
2024/03/11 09:32:35;;;;;;;5.75;2.85;;;;;;;11.60;100.00;96513.41;1223406;75;2927848;-67
2024/03/11 09:35:12;;;;;;;3.45;2.45;;;;;;;11.82;100.00;96506.25;1223234;75;2923550;-65
2024/03/11 09:37:45;;;;;;;4.10;1.90;;;;;;;11.91;100.00;96508.69;1219211;75;2943278;-64
2024/03/11 09:40:19;;;;;;;4.00;1.95;;;;;;;11.88;100.00;96515.19;1222433;67;2920699;-65
2024/03/11 09:42:54;;;;;;;2.65;1.70;;;;;;;12.26;100.00;96501.59;1222731;75;2926568;-64
2024/03/11 09:45:34;;;;;;;2.45;1.80;;;;;;;12.32;100.00;96499.56;1222259;75;2923891;-68
2024/03/11 09:48:08;;;;;;;2.25;1.45;;;;;;;12.36;100.00;96505.47;1222830;75;2925711;-65
2024/03/11 09:50:47;;;;;;;4.85;1.70;;;;;;;12.38;100.00;96494.00;1224021;75;2929127;-65
2024/03/11 09:53:21;;;;;;;2.80;1.60;;;;;;;12.47;99.63;96501.88;1223738;75;2926447;-64
2024/03/11 09:55:58;;;;;;;3.35;1.75;;;;;;;12.43;99.20;96499.41;1222724;75;2923951;-67
2024/03/11 09:58:32;;;;;;;2.45;1.60;;;;;;;12.31;98.15;96490.59;1224535;75;2919570;-67
2024/03/11 10:01:07;;;;;;;2.45;1.75;;;;;;;12.58;98.30;96488.78;1223376;75;2923924;-65
2024/03/11 10:03:41;;;;;;;1.95;1.60;;;;;;;12.43;97.25;96482.22;1222352;75;2921322;-65
2024/03/11 10:06:19;;;;;;;4.55;2.55;;;;;;;12.30;98.95;96483.59;1223148;75;2923362;-64
2024/03/11 10:08:53;;;;;;;3.40;2.20;;;;;;;12.38;97.06;96478.28;1222797;75;2923846;-65
2024/03/11 10:11:28;;;;;;;3.65;1.95;;;;;;;12.44;96.09;96476.22;1223306;75;2918875;-65
2024/03/11 10:14:02;;;;;;;3.25;1.90;;;;;;;12.49;96.04;96472.66;1223751;75;2919075;-65
2024/03/11 10:16:34;;;;;;;3.65;2.10;;;;;;;12.51;94.56;96474.91;1223168;75;2924932;-66
2024/03/11 10:19:11;;;;;;;2.70;2.05;;;;;;;12.55;92.80;96476.09;1223161;75;2927332;-66
2024/03/11 10:21:48;;;;;;;4.55;2.20;;;;;;;12.40;92.56;96464.78;1223181;75;2924455;-63
2024/03/11 10:24:23;;;;;;;4.80;2.80;;;;;;;12.31;93.79;96465.91;1222037;75;2925765;-66
2024/03/11 10:26:57;;;;;;;3.80;2.30;;;;;;;12.37;94.22;96471.31;1221306;75;2923216;-66
2024/03/11 10:29:34;;;;;;;4.30;2.45;;;;;;;12.32;93.57;96467.38;1223513;75;2925138;-64
2024/03/11 10:32:08;;;;;;;3.15;2.30;;;;;;;12.43;93.80;96476.72;1222977;75;2917744;-64
2024/03/11 10:34:56;;;;;;;3.45;2.35;;;;;;;12.28;95.05;96474.41;1223634;75;2919374;-65
2024/03/11 10:37:32;;;;;;;4.70;2.60;;;;;;;12.28;94.16;96468.91;1221676;75;2919131;-65
2024/03/11 10:40:10;;;;;;;3.55;2.35;;;;;;;12.35;93.75;96473.81;1223112;75;2929340;-64
2024/03/11 10:42:49;;;;;;;5.60;2.20;;;;;;;12.25;94.06;96469.94;1224062;75;2928496;-65
2024/03/11 10:45:33;;;;;;;4.65;2.65;;;;;;;12.30;95.75;96472.63;1223739;75;2923052;-65
2024/03/11 10:48:09;;;;;;;3.90;2.50;;;;;;;12.27;94.71;96472.94;1223222;75;2924709;-66
2024/03/11 10:50:42;;;;;;;2.95;2.15;;;;;;;12.31;93.67;96474.13;1221598;75;2930954;-65
2024/03/11 10:53:24;;;;;;;3.50;1.80;;;;;;;12.22;93.41;96471.72;1222278;75;2924707;-65
2024/03/11 10:55:58;;;;;;;5.35;2.60;;;;;;;11.96;97.60;96466.03;1222372;75;2924551;-65
2024/03/11 10:58:31;;;;;;;4.05;2.90;;;;;;;11.95;96.29;96462.50;1223859;75;2921407;-65
2024/03/11 11:01:06;;;;;;;4.60;2.10;;;;;;;12.00;95.95;96456.25;1223756;75;2922559;-65
2024/03/11 11:03:46;;;;;;;2.55;1.90;;;;;;;12.25;94.74;96458.97;1223379;75;2935363;-67
2024/03/11 11:06:27;;;;;;;3.55;2.15;;;;;;;12.28;95.92;96461.41;1223705;75;2916377;-64
2024/03/11 11:09:11;;;;;;;3.45;1.70;;;;;;;12.34;97.15;96464.84;1222607;75;2926260;-67
2024/03/11 11:11:51;;;;;;;5.45;2.90;;;;;;;11.81;100.00;96467.13;1223406;75;2931594;-65
2024/03/11 11:14:24;;;;;;;5.10;2.80;;;;;;;11.82;100.00;96457.63;1223178;75;2922897;-64
2024/03/11 11:17:00;;;;;;;3.20;2.30;;;;;;;12.10;100.00;96454.63;1223321;75;2935755;-64
2024/03/11 11:19:35;;;;;;;4.60;2.00;;;;;;;11.96;100.00;96455.06;1223999;75;2915951;-65
2024/03/11 11:22:10;;;;;;;3.55;2.45;;;;;;;12.15;100.00;96456.56;1224826;75;2919141;-66
2024/03/11 11:24:46;;;;;;;4.10;1.90;;;;;;;12.02;100.00;96453.72;1223678;75;2933961;-64
2024/03/11 11:27:29;;;;;;;2.60;1.85;;;;;;;12.09;100.00;96449.66;1223968;75;2924569;-65
2024/03/11 11:30:22;;;;;;;2.65;2.05;;;;;;;12.13;100.00;96447.38;1224020;75;2922873;-65
2024/03/11 11:32:54;;;;;;;2.90;1.60;;;;;;;12.16;100.00;96454.56;1223553;75;2921273;-65
2024/03/11 11:35:41;;;;;;;1.85;1.60;;;;;;;12.16;100.00;96451.81;1224499;75;2917802;-65
2024/03/11 11:38:37;;;;;;;3.40;1.95;;;;;;;12.10;100.00;96459.38;1222701;75;2925114;-64
2024/03/11 11:41:40;;;;;;;3.90;2.20;;;;;;;11.85;100.00;96462.09;1223123;75;2920322;-65
2024/03/11 11:44:15;;;;;;;3.55;2.45;;;;;;;11.81;100.00;96456.16;1223097;75;2927119;-64
2024/03/11 11:46:51;;;;;;;2.75;1.90;;;;;;;12.01;100.00;96448.75;1223518;75;2925808;-65
2024/03/11 11:49:27;;;;;;;3.35;2.15;;;;;;;11.67;100.00;96452.53;1224101;75;2924843;-64